Yuho Maru No.3 — JD2491 — position and weather

sailwx.info

Track history (hours):
 
Tides and Currents Weather Stations Pressure Air Temp Water Temp Dewpoint Dewpoint Depression Visibility Wind Speed Wind Dir Waves Ship Positions

Yuho Maru No.3

Last reported at 2015-Jan-30 04:18 UTC. Time now 2015-Jan-30 04:55 UTC.
Position N 35°30' E 140°02'.

Length 65 m; draft 4.2 m.

Type: Tanker. MMSI: 431000336.

Date/timePositionNaut miles runAvg speedWind from/ knotsBaromVisibWave heightAir tempDewpointWater temp
2015-Jan-30 04:18N 35°30' E 140°02'0 0.0
2015-Jan-30 03:29N 35°30' E 140°02'0 0.0
2015-Jan-30 01:19N 35°30' E 140°02'1 0.9
2015-Jan-30 00:24N 35°30' E 140°01'1 0.6
2015-Jan-29 23:23N 35°30' E 140°00'  
2015-Jan-26 21:34N 35°30' E 139°46'1 0.6
2015-Jan-26 20:33N 35°30' E 139°45'0 0.0
2015-Jan-26 19:33N 35°30' E 139°45'0 0.0
2015-Jan-26 18:34N 35°30' E 139°45'0 0.0
2015-Jan-26 17:33N 35°30' E 139°45'0 0.0
2015-Jan-26 16:33N 35°30' E 139°45'0 0.0
2015-Jan-26 15:33N 35°30' E 139°45'0 0.0
2015-Jan-26 14:33N 35°30' E 139°45'4209138996.7
2015-Jan-26 14:32N 46°57' W 128°14'42094338.7
2015-Jan-26 13:33N 35°30' E 139°45'0 0.0
2015-Jan-26 12:33N 35°30' E 139°45'0 0.0
2015-Jan-26 11:33N 35°30' E 139°45'0 0.0
2015-Jan-26 10:33N 35°30' E 139°45'0 0.0
2015-Jan-26 09:33N 35°30' E 139°45'0 0.0
2015-Jan-26 08:33N 35°30' E 139°45'0 0.0
2015-Jan-26 07:33N 35°30' E 139°45'0 0.0
2015-Jan-26 06:33N 35°30' E 139°45'0 0.0
2015-Jan-26 05:33N 35°30' E 139°45'42798616.2
2015-Jan-26 05:03N 47°56' W 126°09'42798554.0
2015-Jan-26 04:33N 35°30' E 139°45'0 0.0
2015-Jan-26 03:33N 35°30' E 139°45'0 0.0
2015-Jan-26 02:33N 35°30' E 139°45'3 2.8
2015-Jan-26 01:33N 35°30' E 139°49'7 7.3
2015-Jan-26 00:33N 35°37' E 139°50'0 0.0
2015-Jan-25 23:33N 35°37' E 139°50'3 2.6
2015-Jan-25 22:33N 35°35' E 139°52'0 0.0
2015-Jan-25 19:09N 35°35' E 139°52'0 0.0
2015-Jan-25 18:04N 35°35' E 139°52'0 0.0
2015-Jan-25 17:23N 35°35' E 139°52'0 0.0
2015-Jan-25 16:20N 35°35' E 139°52'0 0.0
2015-Jan-25 15:29N 35°35' E 139°52'0 0.0
2015-Jan-25 10:30N 35°35' E 139°52'0 0.0
2015-Jan-25 08:33N 35°35' E 139°52'0 0.0
2015-Jan-25 07:25N 35°35' E 139°52'0 0.0
2015-Jan-25 06:28N 35°35' E 139°52'6 6.3
2015-Jan-25 05:32N 35°30' E 139°48'5 4.7
2015-Jan-25 04:33N 35°29' E 139°42'0 0.0
2015-Jan-25 03:33N 35°29' E 139°42'0 0.0
2015-Jan-25 02:33N 35°29' E 139°42'0 0.0
2015-Jan-25 01:33N 35°29' E 139°42'0 0.0
2015-Jan-25 00:33N 35°29' E 139°42'0 0.0
2015-Jan-24 23:33N 35°29' E 139°42'0 0.0
2015-Jan-24 22:33N 35°29' E 139°42'2 1.9
2015-Jan-24 21:33N 35°27' E 139°43'1 0.6
2015-Jan-24 20:33N 35°27' E 139°43'0 0.0
2015-Jan-24 19:33N 35°27' E 139°43'0 0.0
2015-Jan-24 18:33N 35°27' E 139°43'0 0.4
2015-Jan-24 17:33N 35°26' E 139°43'4 4.3
2015-Jan-24 16:33N 35°22' E 139°41'0 0.0
2015-Jan-24 15:33N 35°22' E 139°41'0 0.0
2015-Jan-24 14:33N 35°22' E 139°41'0 0.1
2015-Jan-24 13:33N 35°22' E 139°41'0 0.1
2015-Jan-24 12:33N 35°22' E 139°41'0 0.1
2015-Jan-24 11:33N 35°23' E 139°41'0 0.0
2015-Jan-24 10:34N 35°23' E 139°41'0 0.0
2015-Jan-24 09:33N 35°23' E 139°41'0 0.0
2015-Jan-24 08:33N 35°23' E 139°41'4 3.7
2015-Jan-24 07:33N 35°25' E 139°44'6 5.7
2015-Jan-24 06:33N 35°31' E 139°46'4 3.6
2015-Jan-24 05:33N 35°30' E 139°50'0 0.0
2015-Jan-24 02:12N 35°30' E 139°50'6 0.2
2015-Jan-23 00:14N 35°35' E 139°55'4 6.6
2015-Jan-22 23:33N 35°37' E 139°50'3 3.1
2015-Jan-22 22:33N 35°35' E 139°53'0 0.0
2015-Jan-22 19:20N 35°35' E 139°53'0 0.0
2015-Jan-22 16:33N 35°35' E 139°53'0 0.0
2015-Jan-22 15:20N 35°35' E 139°53'0 0.0
2015-Jan-22 13:15N 35°35' E 139°53'0 0.0
2015-Jan-22 12:31N 35°35' E 139°53'0 0.0
2015-Jan-22 10:19N 35°35' E 139°53'6 3.2
2015-Jan-22 08:32N 35°31' E 139°57'3 0.7
2015-Jan-22 04:09N 35°28' E 139°58'3 0.6
2015-Jan-21 22:06N 35°31' E 139°59'0 0.0
2015-Jan-21 20:14N 35°31' E 139°59'0 0.0
2015-Jan-21 11:28N 35°31' E 139°59'7 2.2
2015-Jan-21 08:24N 35°30' E 139°51'5 3.7
2015-Jan-21 07:11N 35°32' E 139°46'0 0.0
2015-Jan-21 06:20N 35°32' E 139°46'0 0.0
2015-Jan-21 05:32N 35°32' E 139°46'0 0.0
2015-Jan-21 04:33N 35°32' E 139°46'1 1.0
2015-Jan-21 03:33N 35°31' E 139°46'0 0.0
2015-Jan-21 02:33N 35°31' E 139°46'0 0.0
2015-Jan-21 01:33N 35°31' E 139°46'0 0.0
2015-Jan-21 00:33N 35°31' E 139°46'0 0.0
2015-Jan-20 23:33N 35°31' E 139°46'3 3.0
2015-Jan-20 22:33N 35°30' E 139°50'0 0.2
2015-Jan-20 21:33N 35°30' E 139°50'0 0.0
2015-Jan-20 20:33N 35°30' E 139°50'0 0.0
2015-Jan-20 19:33N 35°30' E 139°50'0 0.0
2015-Jan-20 18:32N 35°30' E 139°50'0 0.0
2015-Jan-20 17:33N 35°30' E 139°50'0 0.0
2015-Jan-20 16:33N 35°30' E 139°50'0 0.0
2015-Jan-20 15:33N 35°30' E 139°50'0 0.0
2015-Jan-20 14:33N 35°30' E 139°50'0 0.0
2015-Jan-20 13:30N 35°30' E 139°50'0 0.0
2015-Jan-20 12:33N 35°30' E 139°50'0 0.0
2015-Jan-20 10:26N 35°30' E 139°50'0 0.0
2015-Jan-20 09:32N 35°30' E 139°50'0 0.0
2015-Jan-20 08:33N 35°30' E 139°50'0 0.0
2015-Jan-20 07:28N 35°30' E 139°50'  
Track history (hours):
 
Tides and Currents Weather Stations Pressure Air Temp Water Temp Dewpoint Dewpoint Depression Visibility Wind Speed Wind Dir Waves Ship Positions

Yuho Maru No.3

Last reported at 2015-Jan-30 04:18 UTC. Time now 2015-Jan-30 04:55 UTC.
Position N 35°30' E 140°02'.

Length 65 m; draft 4.2 m.

Type: Tanker. MMSI: 431000336.

Date/timePositionNaut miles runAvg speedWind from/ knotsBaromVisibWave heightAir tempDewpointWater temp
2015-Jan-30 04:18N 35°30' E 140°02'0 0.0
2015-Jan-30 03:29N 35°30' E 140°02'0 0.0
2015-Jan-30 01:19N 35°30' E 140°02'1 0.9
2015-Jan-30 00:24N 35°30' E 140°01'1 0.6
2015-Jan-29 23:23N 35°30' E 140°00'  
2015-Jan-26 21:34N 35°30' E 139°46'1 0.6
2015-Jan-26 20:33N 35°30' E 139°45'0 0.0
2015-Jan-26 19:33N 35°30' E 139°45'0 0.0
2015-Jan-26 18:34N 35°30' E 139°45'0 0.0
2015-Jan-26 17:33N 35°30' E 139°45'0 0.0
2015-Jan-26 16:33N 35°30' E 139°45'0 0.0
2015-Jan-26 15:33N 35°30' E 139°45'0 0.0
2015-Jan-26 14:33N 35°30' E 139°45'4209138996.7
2015-Jan-26 14:32N 46°57' W 128°14'42094338.7
2015-Jan-26 13:33N 35°30' E 139°45'0 0.0
2015-Jan-26 12:33N 35°30' E 139°45'0 0.0
2015-Jan-26 11:33N 35°30' E 139°45'0 0.0
2015-Jan-26 10:33N 35°30' E 139°45'0 0.0
2015-Jan-26 09:33N 35°30' E 139°45'0 0.0
2015-Jan-26 08:33N 35°30' E 139°45'0 0.0
2015-Jan-26 07:33N 35°30' E 139°45'0 0.0
2015-Jan-26 06:33N 35°30' E 139°45'0 0.0
2015-Jan-26 05:33N 35°30' E 139°45'42798616.2
2015-Jan-26 05:03N 47°56' W 126°09'42798554.0
2015-Jan-26 04:33N 35°30' E 139°45'0 0.0
2015-Jan-26 03:33N 35°30' E 139°45'0 0.0
2015-Jan-26 02:33N 35°30' E 139°45'3 2.8
2015-Jan-26 01:33N 35°30' E 139°49'7 7.3
2015-Jan-26 00:33N 35°37' E 139°50'0 0.0
2015-Jan-25 23:33N 35°37' E 139°50'3 2.6
2015-Jan-25 22:33N 35°35' E 139°52'0 0.0
2015-Jan-25 19:09N 35°35' E 139°52'0 0.0
2015-Jan-25 18:04N 35°35' E 139°52'0 0.0
2015-Jan-25 17:23N 35°35' E 139°52'0 0.0
2015-Jan-25 16:20N 35°35' E 139°52'0 0.0
2015-Jan-25 15:29N 35°35' E 139°52'0 0.0
2015-Jan-25 10:30N 35°35' E 139°52'0 0.0
2015-Jan-25 08:33N 35°35' E 139°52'0 0.0
2015-Jan-25 07:25N 35°35' E 139°52'0 0.0
2015-Jan-25 06:28N 35°35' E 139°52'6 6.3
2015-Jan-25 05:32N 35°30' E 139°48'5 4.7
2015-Jan-25 04:33N 35°29' E 139°42'0 0.0
2015-Jan-25 03:33N 35°29' E 139°42'0 0.0
2015-Jan-25 02:33N 35°29' E 139°42'0 0.0
2015-Jan-25 01:33N 35°29' E 139°42'0 0.0
2015-Jan-25 00:33N 35°29' E 139°42'0 0.0
2015-Jan-24 23:33N 35°29' E 139°42'0 0.0
2015-Jan-24 22:33N 35°29' E 139°42'2 1.9
2015-Jan-24 21:33N 35°27' E 139°43'1 0.6
2015-Jan-24 20:33N 35°27' E 139°43'0 0.0
2015-Jan-24 19:33N 35°27' E 139°43'0 0.0
2015-Jan-24 18:33N 35°27' E 139°43'0 0.4
2015-Jan-24 17:33N 35°26' E 139°43'4 4.3
2015-Jan-24 16:33N 35°22' E 139°41'0 0.0
2015-Jan-24 15:33N 35°22' E 139°41'0 0.0
2015-Jan-24 14:33N 35°22' E 139°41'0 0.1
2015-Jan-24 13:33N 35°22' E 139°41'0 0.1
2015-Jan-24 12:33N 35°22' E 139°41'0 0.1
2015-Jan-24 11:33N 35°23' E 139°41'0 0.0
2015-Jan-24 10:34N 35°23' E 139°41'0 0.0
2015-Jan-24 09:33N 35°23' E 139°41'0 0.0
2015-Jan-24 08:33N 35°23' E 139°41'4 3.7
2015-Jan-24 07:33N 35°25' E 139°44'6 5.7
2015-Jan-24 06:33N 35°31' E 139°46'4 3.6
2015-Jan-24 05:33N 35°30' E 139°50'0 0.0
2015-Jan-24 02:12N 35°30' E 139°50'6 0.2
2015-Jan-23 00:14N 35°35' E 139°55'4 6.6
2015-Jan-22 23:33N 35°37' E 139°50'3 3.1
2015-Jan-22 22:33N 35°35' E 139°53'0 0.0
2015-Jan-22 19:20N 35°35' E 139°53'0 0.0
2015-Jan-22 16:33N 35°35' E 139°53'0 0.0
2015-Jan-22 15:20N 35°35' E 139°53'0 0.0
2015-Jan-22 13:15N 35°35' E 139°53'0 0.0
2015-Jan-22 12:31N 35°35' E 139°53'0 0.0
2015-Jan-22 10:19N 35°35' E 139°53'6 3.2
2015-Jan-22 08:32N 35°31' E 139°57'3 0.7
2015-Jan-22 04:09N 35°28' E 139°58'3 0.6
2015-Jan-21 22:06N 35°31' E 139°59'0 0.0
2015-Jan-21 20:14N 35°31' E 139°59'0 0.0
2015-Jan-21 11:28N 35°31' E 139°59'7 2.2
2015-Jan-21 08:24N 35°30' E 139°51'5 3.7
2015-Jan-21 07:11N 35°32' E 139°46'0 0.0
2015-Jan-21 06:20N 35°32' E 139°46'0 0.0
2015-Jan-21 05:32N 35°32' E 139°46'0 0.0
2015-Jan-21 04:33N 35°32' E 139°46'1 1.0
2015-Jan-21 03:33N 35°31' E 139°46'0 0.0
2015-Jan-21 02:33N 35°31' E 139°46'0 0.0
2015-Jan-21 01:33N 35°31' E 139°46'0 0.0
2015-Jan-21 00:33N 35°31' E 139°46'0 0.0
2015-Jan-20 23:33N 35°31' E 139°46'3 3.0
2015-Jan-20 22:33N 35°30' E 139°50'0 0.2
2015-Jan-20 21:33N 35°30' E 139°50'0 0.0
2015-Jan-20 20:33N 35°30' E 139°50'0 0.0
2015-Jan-20 19:33N 35°30' E 139°50'0 0.0
2015-Jan-20 18:32N 35°30' E 139°50'0 0.0
2015-Jan-20 17:33N 35°30' E 139°50'0 0.0
2015-Jan-20 16:33N 35°30' E 139°50'0 0.0
2015-Jan-20 15:33N 35°30' E 139°50'0 0.0
2015-Jan-20 14:33N 35°30' E 139°50'0 0.0
2015-Jan-20 13:30N 35°30' E 139°50'0 0.0
2015-Jan-20 12:33N 35°30' E 139°50'0 0.0
2015-Jan-20 10:26N 35°30' E 139°50'0 0.0
2015-Jan-20 09:32N 35°30' E 139°50'0 0.0
2015-Jan-20 08:33N 35°30' E 139°50'0 0.0
2015-Jan-20 07:28N 35°30' E 139°50'  

Dump ship's entire track history